Time;durP1;ratioP1;P1;durP2;ratioP2;P2;SDS_P1;SDS_P2;PMS_P1;PMS_P2;Temp;Humidity;BMP_temperature;BMP_pressure;BME280_temperature;BME280_humidity;BME280_pressure;Samples;Min_cycle;Max_cycle;Signal;HPM_P1;HPM_P2
2022/08/25 00:01:47;;;;;;;5.18;3.05;;;;;;;18.51;100.00;101524.19;5006610;28;20434;-84
2022/08/25 00:04:16;;;;;;;6.00;3.07;;;;;;;18.59;100.00;101519.06;5002644;28;20417;-85
2022/08/25 00:06:51;;;;;;;5.28;2.90;;;;;;;18.55;100.00;101518.88;5030628;28;20415;-86
2022/08/25 00:09:27;;;;;;;6.60;3.40;;;;;;;18.51;100.00;101515.94;5012508;28;20416;-88
2022/08/25 00:12:01;;;;;;;4.80;3.03;;;;;;;18.49;100.00;101517.38;5025516;28;20421;-86
2022/08/25 00:14:33;;;;;;;7.85;3.20;;;;;;;18.53;100.00;101529.41;5030822;28;20402;-87
2022/08/25 00:17:04;;;;;;;5.80;3.10;;;;;;;18.56;100.00;101519.69;5030398;28;20411;-85
2022/08/25 00:19:38;;;;;;;6.53;3.17;;;;;;;18.55;100.00;101518.88;5028846;28;20818;-86
2022/08/25 00:22:11;;;;;;;7.28;3.08;;;;;;;18.48;100.00;101519.31;5027487;28;20414;-83
2022/08/25 00:24:44;;;;;;;7.70;3.55;;;;;;;18.48;100.00;101502.78;5029881;28;20411;-84
2022/08/25 00:27:17;;;;;;;6.72;3.20;;;;;;;18.43;100.00;101508.41;5011676;28;20419;-84
2022/08/25 00:29:50;;;;;;;6.03;3.20;;;;;;;18.39;100.00;101506.59;5031872;28;20422;-85
2022/08/25 00:32:25;;;;;;;5.97;3.15;;;;;;;18.43;100.00;101508.41;5034425;28;20418;-86
2022/08/25 00:34:54;;;;;;;6.55;3.22;;;;;;;18.41;100.00;101498.81;5025158;28;20918;-84
2022/08/25 00:37:27;;;;;;;5.60;3.15;;;;;;;18.38;100.00;101499.47;5031517;28;20426;-84
2022/08/25 00:40:00;;;;;;;6.03;3.08;;;;;;;18.36;100.00;101497.81;5011184;28;20442;-85
2022/08/25 00:42:28;;;;;;;6.18;3.20;;;;;;;18.27;100.00;101496.13;5028118;28;20435;-84
2022/08/25 00:44:57;;;;;;;5.03;2.90;;;;;;;18.23;100.00;101482.19;5033751;28;20905;-86
2022/08/25 00:47:31;;;;;;;5.93;3.00;;;;;;;18.26;100.00;101498.09;5011748;28;20500;-86
2022/08/25 00:50:07;;;;;;;5.50;3.20;;;;;;;18.24;100.00;101497.56;5030340;28;20431;-87
2022/08/25 00:52:44;;;;;;;5.88;3.30;;;;;;;18.11;100.00;101474.47;5014819;28;20423;-84
2022/08/25 00:55:18;;;;;;;6.37;3.30;;;;;;;18.06;100.00;101482.84;5030103;28;20422;-85
2022/08/25 00:57:55;;;;;;;7.05;3.10;;;;;;;18.22;100.00;101497.06;5028637;28;20423;-84
2022/08/25 01:00:28;;;;;;;5.97;3.30;;;;;;;18.10;100.00;101497.63;5028177;28;20427;-86
2022/08/25 01:03:04;;;;;;;6.23;3.20;;;;;;;18.05;100.00;101491.41;5030065;28;20423;-83
2022/08/25 01:05:32;;;;;;;6.03;2.97;;;;;;;18.09;100.00;101493.25;5029417;28;20407;-84
2022/08/25 01:08:02;;;;;;;6.67;3.30;;;;;;;18.07;100.00;101492.75;5007058;28;20434;-84
2022/08/25 01:10:31;;;;;;;7.93;3.30;;;;;;;17.99;100.00;101499.81;5011688;28;20805;-84
2022/08/25 01:13:10;;;;;;;6.85;3.50;;;;;;;17.95;100.00;101500.72;5003154;28;20415;-84
2022/08/25 01:15:44;;;;;;;6.40;3.30;;;;;;;17.93;100.00;101501.03;5027745;28;20517;-86
2022/08/25 01:18:13;;;;;;;6.38;3.30;;;;;;;17.87;100.00;101495.91;5029398;28;20414;-85
2022/08/25 01:20:50;;;;;;;7.03;3.50;;;;;;;17.94;100.00;101490.81;5012889;28;20426;-85
2022/08/25 01:23:25;;;;;;;6.27;3.30;;;;;;;17.96;100.00;101494.09;5007974;28;20419;-83
2022/08/25 01:26:03;;;;;;;7.32;3.42;;;;;;;17.93;100.00;101492.78;5029399;28;20429;-86
2022/08/25 01:28:37;;;;;;;5.75;3.33;;;;;;;17.88;100.00;101481.03;5032733;28;20419;-85
2022/08/25 01:31:31;;;;;;;6.77;3.33;;;;;;;17.89;100.00;101475.22;5008847;28;20411;-85
2022/08/25 01:34:01;;;;;;;7.63;3.47;;;;;;;17.93;100.00;101481.75;5027381;28;20426;-83
2022/08/25 01:36:36;;;;;;;6.38;3.40;;;;;;;17.94;100.00;101493.59;5024171;28;20457;-84
2022/08/25 01:39:04;;;;;;;5.80;3.40;;;;;;;17.83;100.00;101491.03;5027668;28;20403;-84
2022/08/25 01:41:49;;;;;;;7.00;3.30;;;;;;;17.84;100.00;101489.91;5028280;28;20430;-86
2022/08/25 01:44:18;;;;;;;6.23;3.30;;;;;;;17.73;100.00;101485.78;5029094;28;20407;-86
2022/08/25 01:46:51;;;;;;;6.43;3.40;;;;;;;17.76;100.00;101490.66;5010131;28;20426;-86
2022/08/25 01:49:24;;;;;;;5.63;3.20;;;;;;;17.65;100.00;101486.50;5013982;28;20429;-86
2022/08/25 01:52:05;;;;;;;7.70;3.40;;;;;;;17.60;100.00;101490.16;5028116;28;20434;-87
2022/08/25 01:54:33;;;;;;;8.20;3.50;;;;;;;17.71;100.00;101495.47;5010829;28;20426;-86
2022/08/25 01:57:07;;;;;;;5.30;3.33;;;;;;;17.64;100.00;101495.88;5024305;28;20417;-86
2022/08/25 01:59:41;;;;;;;5.63;3.30;;;;;;;17.67;100.00;101500.75;5011226;28;20767;-87
2022/08/25 02:02:14;;;;;;;6.65;3.60;;;;;;;17.70;100.00;101504.84;5029417;28;20431;-85
2022/08/25 02:04:48;;;;;;;5.70;3.23;;;;;;;17.65;100.00;101498.31;5032710;28;20422;-86
2022/08/25 02:07:18;;;;;;;8.23;3.50;;;;;;;17.58;100.00;101497.09;5029181;28;20427;-86
2022/08/25 02:09:51;;;;;;;7.10;3.60;;;;;;;17.66;100.00;101496.38;5017918;28;20926;-85
2022/08/25 02:12:26;;;;;;;5.95;3.40;;;;;;;17.55;100.00;101498.50;5026914;28;21316;-86
2022/08/25 02:14:54;;;;;;;6.20;3.50;;;;;;;17.56;100.00;101493.84;5011045;28;20918;-86
2022/08/25 02:17:22;;;;;;;5.05;3.13;;;;;;;17.54;100.00;101502.41;5027202;28;20925;-85
2022/08/25 02:19:56;;;;;;;6.38;3.40;;;;;;;17.52;100.00;101499.13;5000257;28;20422;-86
2022/08/25 02:22:25;;;;;;;7.85;3.60;;;;;;;17.43;100.00;101503.75;5008154;28;20490;-86
2022/08/25 02:24:59;;;;;;;6.47;3.63;;;;;;;17.41;100.00;101493.03;5028882;28;20419;-82
2022/08/25 02:27:32;;;;;;;6.18;3.53;;;;;;;17.43;100.00;101490.78;5011002;28;20407;-85
2022/08/25 02:30:05;;;;;;;7.68;3.67;;;;;;;17.36;100.00;101490.41;5009246;28;20924;-85
2022/08/25 02:32:39;;;;;;;6.82;3.90;;;;;;;17.33;100.00;101482.72;5022435;28;20432;-85
2022/08/25 02:35:13;;;;;;;6.72;3.60;;;;;;;17.30;100.00;101492.44;5026774;28;20431;-84
2022/08/25 02:37:47;;;;;;;6.68;3.78;;;;;;;17.29;100.00;101496.31;5007872;28;20434;-85
2022/08/25 02:40:16;;;;;;;6.32;3.90;;;;;;;17.32;100.00;101492.94;5026028;28;20410;-86
2022/08/25 02:42:44;;;;;;;6.20;3.80;;;;;;;17.34;100.00;101495.38;4999809;28;20423;-84
2022/08/25 02:45:18;;;;;;;7.78;4.22;;;;;;;17.19;100.00;101490.19;4999490;28;20428;-85
2022/08/25 02:47:52;;;;;;;7.25;4.30;;;;;;;17.16;100.00;101484.16;5026089;28;20411;-84
2022/08/25 02:50:20;;;;;;;7.45;4.18;;;;;;;17.20;100.00;101483.56;5034189;28;20436;-85
2022/08/25 02:52:55;;;;;;;10.60;4.20;;;;;;;17.26;100.00;101477.66;5030865;28;20407;-84
2022/08/25 02:55:28;;;;;;;7.60;3.95;;;;;;;17.20;100.00;101461.56;5013042;28;20776;-85
2022/08/25 02:58:01;;;;;;;6.75;3.72;;;;;;;17.24;100.00;101468.09;5010412;28;20442;-85
2022/08/25 03:00:35;;;;;;;7.68;3.90;;;;;;;17.15;100.00;101462.47;5035797;28;20426;-85
2022/08/25 03:03:03;;;;;;;7.38;3.92;;;;;;;17.20;100.00;101467.06;5033352;28;20881;-85
2022/08/25 03:05:36;;;;;;;9.27;4.30;;;;;;;17.12;100.00;101476.81;5029256;28;20858;-85
2022/08/25 03:08:11;;;;;;;8.02;4.10;;;;;;;17.17;100.00;101472.03;5027462;28;20446;-85
2022/08/25 03:10:44;;;;;;;8.77;4.00;;;;;;;17.06;100.00;101475.31;5010597;28;20440;-85
2022/08/25 03:13:18;;;;;;;7.07;3.95;;;;;;;17.11;100.00;101475.19;5030196;28;20907;-84
2022/08/25 03:15:51;;;;;;;7.65;3.70;;;;;;;17.02;100.00;101477.84;5007026;28;20899;-85
2022/08/25 03:18:19;;;;;;;5.93;3.80;;;;;;;16.88;100.00;101477.78;5036807;28;20414;-85
2022/08/25 03:20:52;;;;;;;6.30;3.65;;;;;;;16.93;100.00;101471.41;5034118;28;20454;-84
2022/08/25 03:23:26;;;;;;;8.90;4.32;;;;;;;16.87;100.00;101465.16;5013793;28;20415;-85
2022/08/25 03:28:51;;;;;;;7.82;3.80;;;;;;;16.76;100.00;101453.53;5022925;28;20434;-85
2022/08/25 03:31:26;;;;;;;6.68;3.72;;;;;;;16.71;100.00;101464.63;5036630;28;20431;-85
2022/08/25 03:34:00;;;;;;;8.32;3.60;;;;;;;16.70;100.00;101470.44;5013255;28;20442;-83
2022/08/25 03:36:33;;;;;;;8.07;4.30;;;;;;;16.51;100.00;101460.31;5030584;28;20434;-84
2022/08/25 03:39:03;;;;;;;6.50;3.55;;;;;;;16.65;100.00;101458.41;5029284;28;20407;-84
2022/08/25 03:41:37;;;;;;;6.90;3.70;;;;;;;16.60;100.00;101457.66;5013046;28;20434;-84
2022/08/25 03:44:10;;;;;;;5.82;3.80;;;;;;;16.75;100.00;101471.16;5030843;28;20409;-85
2022/08/25 03:46:40;;;;;;;9.02;4.15;;;;;;;16.84;100.00;101469.31;5031682;28;20415;-85
2022/08/25 03:49:18;;;;;;;7.63;4.20;;;;;;;16.94;100.00;101468.34;5032503;28;20433;-85
2022/08/25 03:51:53;;;;;;;6.90;4.00;;;;;;;16.93;100.00;101472.25;5031347;28;20891;-85
2022/08/25 03:54:28;;;;;;;6.60;4.05;;;;;;;16.92;100.00;101478.03;5029602;28;20411;-84
2022/08/25 03:57:01;;;;;;;10.40;5.28;;;;;;;16.95;100.00;101464.50;5031232;28;20433;-85
2022/08/25 03:59:37;;;;;;;9.40;5.18;;;;;;;16.97;100.00;101462.25;5015588;28;20434;-84
2022/08/25 04:02:10;;;;;;;10.55;5.95;;;;;;;17.04;100.00;101470.13;5028782;28;20899;-83
2022/08/25 04:04:43;;;;;;;9.40;5.82;;;;;;;17.00;100.00;101456.16;5010491;28;20423;-85
2022/08/25 04:07:16;;;;;;;9.63;5.97;;;;;;;17.13;100.00;101464.72;5026413;28;20415;-84
2022/08/25 04:09:46;;;;;;;9.68;6.22;;;;;;;17.17;100.00;101462.97;5030855;28;20989;-86
2022/08/25 04:12:14;;;;;;;12.93;6.63;;;;;;;17.08;100.00;101459.31;5013078;28;20922;-85
2022/08/25 04:14:47;;;;;;;11.33;6.53;;;;;;;17.10;100.00;101466.13;5030844;28;20411;-83
2022/08/25 04:17:20;;;;;;;10.52;6.55;;;;;;;17.13;100.00;101460.03;5011541;28;20428;-84
2022/08/25 04:19:53;;;;;;;12.77;7.00;;;;;;;17.12;100.00;101457.56;5030813;28;20430;-83
2022/08/25 04:22:27;;;;;;;11.30;6.97;;;;;;;17.07;100.00;101450.25;5022243;28;20429;-83
2022/08/25 04:25:01;;;;;;;13.25;7.40;;;;;;;17.18;100.00;101453.63;5019226;28;20896;-84
2022/08/25 04:27:30;;;;;;;11.93;7.30;;;;;;;17.06;100.00;101445.06;5031085;28;20422;-84
2022/08/25 04:30:04;;;;;;;11.20;6.72;;;;;;;17.17;100.00;101457.47;5015451;28;20060;-85
2022/08/25 04:32:33;;;;;;;9.40;5.78;;;;;;;17.06;100.00;101450.56;5048397;28;20057;-83
2022/08/25 04:35:07;;;;;;;10.13;6.13;;;;;;;17.15;100.00;101459.72;5035880;28;20057;-85
2022/08/25 04:37:40;;;;;;;13.02;5.93;;;;;;;17.20;100.00;101467.06;5037338;28;20056;-84
2022/08/25 04:40:15;;;;;;;17.73;6.47;;;;;;;17.13;100.00;101460.03;5009648;28;20061;-83
2022/08/25 04:42:51;;;;;;;10.40;6.05;;;;;;;17.18;100.00;101470.13;5015928;28;20053;-83
2022/08/25 04:45:19;;;;;;;21.00;6.60;;;;;;;17.06;100.00;101467.88;5031689;28;20402;-84
2022/08/25 04:47:53;;;;;;;10.60;6.50;;;;;;;16.98;100.00;101463.88;5036366;28;20041;-85
2022/08/25 04:50:27;;;;;;;11.90;6.40;;;;;;;16.97;100.00;101472.44;5033512;28;20058;-81
2022/08/25 04:53:00;;;;;;;12.07;6.43;;;;;;;17.01;100.00;101467.94;5032172;28;20045;-82
2022/08/25 04:55:30;;;;;;;11.43;6.20;;;;;;;17.10;100.00;101471.63;5033765;28;20084;-85
2022/08/25 04:58:03;;;;;;;16.52;6.95;;;;;;;17.18;100.00;101467.38;5033434;28;20049;-84
2022/08/25 05:00:36;;;;;;;14.27;6.88;;;;;;;17.24;100.00;101470.84;5015312;28;20045;-84
2022/08/25 05:03:10;;;;;;;16.35;6.70;;;;;;;17.25;100.00;101472.44;5032165;28;20056;-85
2022/08/25 05:05:43;;;;;;;12.32;7.68;;;;;;;17.30;100.00;101470.44;5033304;28;20040;-84
2022/08/25 05:08:16;;;;;;;11.55;6.78;;;;;;;17.26;100.00;101472.16;5016695;28;20049;-84
2022/08/25 05:10:53;;;;;;;12.68;7.18;;;;;;;17.20;100.00;101470.63;5027781;28;20061;-84
2022/08/25 05:13:26;;;;;;;13.07;6.47;;;;;;;17.23;100.00;101467.25;5031364;28;20514;-85
2022/08/25 05:16:00;;;;;;;13.60;6.60;;;;;;;17.27;100.00;101462.75;5029036;28;20498;-85
2022/08/25 05:18:34;;;;;;;12.70;6.60;;;;;;;17.30;100.00;101462.19;5033757;28;20045;-84
2022/08/25 05:21:11;;;;;;;11.85;7.10;;;;;;;17.31;100.00;101457.47;5031102;28;20494;-85
2022/08/25 05:23:45;;;;;;;12.15;6.32;;;;;;;17.22;100.00;101457.38;5012716;28;20057;-84
2022/08/25 05:26:21;;;;;;;11.45;6.13;;;;;;;17.35;100.00;101455.75;5018787;28;20517;-84
2022/08/25 05:28:50;;;;;;;26.73;7.05;;;;;;;17.24;100.00;101452.38;5031000;28;20058;-83
2022/08/25 05:31:25;;;;;;;12.52;6.55;;;;;;;17.33;100.00;101445.06;5031136;28;20041;-83
2022/08/25 05:33:59;;;;;;;11.10;6.40;;;;;;;17.36;100.00;101443.63;5031392;28;20064;-84
2022/08/25 05:36:33;;;;;;;14.43;7.07;;;;;;;17.42;100.00;101442.38;5014529;28;20052;-85
2022/08/25 05:39:06;;;;;;;11.35;6.40;;;;;;;17.39;100.00;101431.19;5032680;28;20041;-86
2022/08/25 05:41:36;;;;;;;11.75;6.72;;;;;;;17.40;100.00;101441.88;5028217;28;20061;-84
2022/08/25 05:44:09;;;;;;;13.73;7.32;;;;;;;17.51;100.00;101448.78;5008813;28;20056;-85
2022/08/25 05:46:37;;;;;;;14.30;7.07;;;;;;;17.55;100.00;101454.47;5014447;28;20616;-85
2022/08/25 05:49:10;;;;;;;12.30;6.60;;;;;;;17.54;100.00;101447.38;5030987;28;20053;-85
2022/08/25 05:51:43;;;;;;;12.38;6.88;;;;;;;17.67;100.00;101446.50;5024269;28;20064;-84
2022/08/25 05:54:16;;;;;;;11.10;6.22;;;;;;;17.83;100.00;101457.19;5030128;28;20060;-85
2022/08/25 05:56:51;;;;;;;12.45;6.88;;;;;;;17.87;100.00;101465.63;5031332;28;20053;-86
2022/08/25 05:59:24;;;;;;;12.50;7.40;;;;;;;17.89;100.00;101463.41;5032646;28;20462;-85
2022/08/25 06:05:03;;;;;;;13.37;7.37;;;;;;;17.73;100.00;101462.91;4946784;28;20051;-85
2022/08/25 06:07:38;;;;;;;12.27;7.00;;;;;;;17.64;100.00;101462.84;4933060;29;20051;-86
2022/08/25 06:10:10;;;;;;;11.43;6.68;;;;;;;17.72;100.00;101464.03;4977561;28;20062;-86
2022/08/25 06:12:45;;;;;;;13.45;7.60;;;;;;;17.77;100.00;101462.00;5029667;28;20046;-88
2022/08/25 06:15:16;;;;;;;13.90;7.32;;;;;;;17.84;100.00;101458.81;5024465;28;20054;-86
2022/08/25 06:17:50;;;;;;;13.52;6.90;;;;;;;17.86;100.00;101464.84;5009484;28;20049;-84
2022/08/25 06:20:26;;;;;;;12.75;7.38;;;;;;;17.84;100.00;101465.13;5021097;28;20050;-85
2022/08/25 06:22:55;;;;;;;14.77;7.47;;;;;;;17.89;100.00;101466.97;5024170;28;20045;-84
2022/08/25 06:25:26;;;;;;;12.75;7.22;;;;;;;17.91;100.00;101466.63;5011332;28;20053;-87
2022/08/25 06:28:00;;;;;;;11.85;7.03;;;;;;;17.77;100.00;101470.25;5043947;28;20053;-85
2022/08/25 06:30:33;;;;;;;11.65;7.35;;;;;;;17.95;100.00;101467.69;5035421;28;20042;-84
2022/08/25 06:33:02;;;;;;;12.23;7.25;;;;;;;17.91;100.00;101459.25;5034115;28;20041;-85
2022/08/25 06:35:35;;;;;;;14.75;7.50;;;;;;;17.93;100.00;101456.97;5016058;28;20553;-85
2022/08/25 06:38:03;;;;;;;13.70;7.18;;;;;;;17.98;100.00;101450.53;5028709;28;20044;-86
2022/08/25 06:40:35;;;;;;;14.40;8.02;;;;;;;18.07;100.00;101453.38;5019135;28;20053;-86
2022/08/25 06:43:07;;;;;;;13.80;7.65;;;;;;;18.05;100.00;101450.94;5041270;28;20037;-85
2022/08/25 06:45:36;;;;;;;15.98;8.27;;;;;;;17.94;100.00;101444.84;5037101;28;20045;-85
2022/08/25 06:48:05;;;;;;;13.50;7.43;;;;;;;18.15;100.00;101456.19;5032319;28;20132;-80
2022/08/25 06:50:39;;;;;;;12.98;7.05;;;;;;;18.10;100.00;101450.00;5013477;28;20056;-86
2022/08/25 06:53:08;;;;;;;13.82;7.70;;;;;;;18.09;100.00;101453.88;5006236;28;20733;-86
2022/08/25 06:55:42;;;;;;;15.68;7.38;;;;;;;18.09;100.00;101456.63;5008946;28;20072;-87
2022/08/25 06:58:17;;;;;;;13.32;7.50;;;;;;;18.08;100.00;101457.75;5006461;28;20525;-86
2022/08/25 07:00:45;;;;;;;13.18;7.32;;;;;;;18.00;100.00;101449.09;5024391;28;20049;-86
2022/08/25 07:03:13;;;;;;;13.48;6.75;;;;;;;17.77;100.00;101428.97;5024299;28;20044;-89
2022/08/25 07:05:51;;;;;;;12.23;7.32;;;;;;;17.94;100.00;101452.28;5007620;28;20486;-84
2022/08/25 07:08:20;;;;;;;12.00;6.80;;;;;;;18.12;100.00;101453.25;5007364;28;20838;-85
2022/08/25 07:10:48;;;;;;;10.82;6.60;;;;;;;18.18;100.00;101443.72;5020899;28;20060;-87
2022/08/25 07:13:23;;;;;;;9.45;6.38;;;;;;;18.44;100.00;101448.63;5002728;28;20049;-87
2022/08/25 07:15:58;;;;;;;11.45;6.50;;;;;;;18.56;100.00;101457.13;5005903;28;20128;-89
2022/08/25 07:18:27;;;;;;;12.57;6.90;;;;;;;18.67;100.00;101460.41;5005344;28;20045;-85
2022/08/25 07:21:00;;;;;;;10.85;6.60;;;;;;;18.67;100.00;101452.97;5021610;28;20685;-87
2022/08/25 07:23:33;;;;;;;15.10;6.07;;;;;;;18.80;100.00;101442.16;5027064;28;20052;-87
2022/08/25 07:26:10;;;;;;;12.20;6.05;;;;;;;18.85;100.00;101459.38;5017799;28;20045;-86
2022/08/25 07:28:40;;;;;;;13.15;5.63;;;;;;;18.90;100.00;101446.63;5000009;28;20051;-87
2022/08/25 07:31:13;;;;;;;11.75;5.65;;;;;;;18.61;100.00;101456.16;5017849;28;21396;-88
2022/08/25 07:36:34;;;;;;;10.70;5.63;;;;;;;18.99;100.00;101453.00;5027760;28;20053;-88
2022/08/25 07:39:07;;;;;;;10.77;5.15;;;;;;;19.24;100.00;101448.69;4996476;28;20057;-88
2022/08/25 07:41:37;;;;;;;7.72;4.57;;;;;;;19.51;100.00;101452.31;5006937;28;20748;-88
2022/08/25 07:44:12;;;;;;;10.23;4.38;;;;;;;19.62;100.00;101452.81;4999757;28;20050;-88
2022/08/25 07:46:45;;;;;;;6.32;4.00;;;;;;;19.66;100.00;101460.13;4986120;28;20469;-86
2022/08/25 07:49:19;;;;;;;10.50;4.90;;;;;;;19.59;100.00;101454.28;5004938;28;20056;-87
2022/08/25 07:51:48;;;;;;;9.75;4.32;;;;;;;19.79;100.00;101452.84;5005386;28;20058;-90
2022/08/25 07:54:17;;;;;;;6.80;3.90;;;;;;;19.74;100.00;101414.34;5012618;28;20049;-87
2022/08/25 07:56:50;;;;;;;7.30;3.20;;;;;;;19.96;100.00;101451.25;5006043;28;20231;-87
2022/08/25 07:59:24;;;;;;;8.98;3.92;;;;;;;19.64;100.00;101448.59;4987581;28;20054;-88
2022/08/25 08:01:57;;;;;;;8.10;3.15;;;;;;;19.91;100.00;101451.41;4999550;28;20072;-86
2022/08/25 08:04:30;;;;;;;7.25;3.63;;;;;;;20.08;100.00;101445.06;5015007;28;20048;-89
2022/08/25 08:06:59;;;;;;;7.05;3.53;;;;;;;20.26;100.00;101440.34;5013052;28;20057;-90
2022/08/25 08:09:32;;;;;;;5.70;3.45;;;;;;;20.32;100.00;101445.38;5028923;28;20060;-88
2022/08/25 08:12:01;;;;;;;7.53;3.30;;;;;;;20.54;100.00;101447.09;5018117;28;20054;-81
2022/08/25 08:14:37;;;;;;;5.80;3.33;;;;;;;20.39;100.00;101439.34;5020231;28;20037;-87
2022/08/25 08:17:06;;;;;;;11.93;3.65;;;;;;;20.60;100.00;101439.44;5022243;28;20063;-85
2022/08/25 08:19:40;;;;;;;6.75;3.20;;;;;;;20.77;100.00;101435.88;5020786;28;20050;-83
2022/08/25 08:22:14;;;;;;;6.38;3.33;;;;;;;20.64;100.00;101432.13;4992385;28;20053;-87
2022/08/25 08:24:44;;;;;;;7.82;3.45;;;;;;;20.81;100.00;101436.81;4997580;28;20062;-86
2022/08/25 08:27:17;;;;;;;5.40;3.13;;;;;;;20.81;100.00;101436.81;5001801;28;20608;-85
2022/08/25 08:29:52;;;;;;;7.22;3.20;;;;;;;21.01;100.00;101424.19;5002691;28;20041;-85
2022/08/25 08:32:25;;;;;;;5.75;3.40;;;;;;;20.97;100.00;101423.22;5003861;28;20854;-86
2022/08/25 08:34:58;;;;;;;5.82;3.13;;;;;;;20.99;100.00;101422.91;5000959;28;20049;-86
2022/08/25 08:37:32;;;;;;;7.22;3.28;;;;;;;21.00;100.00;101419.00;4991702;28;20417;-87
2022/08/25 08:40:07;;;;;;;5.70;3.30;;;;;;;21.18;100.00;101425.25;5005177;28;20045;-85
2022/08/25 08:42:53;;;;;;;8.00;3.38;;;;;;;21.26;100.00;101420.81;5022483;28;20045;-87
2022/08/25 08:45:33;;;;;;;6.68;3.13;;;;;;;21.26;100.00;101424.38;5017850;28;20053;-86
2022/08/25 08:48:32;;;;;;;6.60;3.40;;;;;;;21.23;100.00;101414.00;4996977;28;20349;-87
2022/08/25 08:51:17;;;;;;;8.00;3.10;;;;;;;21.35;100.00;101410.47;5004793;28;20064;-87
2022/08/25 08:53:52;;;;;;;6.55;3.20;;;;;;;21.62;100.00;101423.03;4988427;28;20064;-87
2022/08/25 08:56:25;;;;;;;8.13;3.35;;;;;;;21.79;100.00;101419.31;5003689;28;20670;-87
2022/08/25 08:58:57;;;;;;;8.82;3.40;;;;;;;21.84;100.00;101418.31;4991077;28;20066;-87
2022/08/25 09:01:35;;;;;;;9.50;3.10;;;;;;;21.97;100.00;101420.00;5005558;28;20057;-86
2022/08/25 09:04:14;;;;;;;7.45;3.67;;;;;;;22.01;100.00;101409.03;5004556;28;20041;-86
2022/08/25 09:06:46;;;;;;;13.25;3.47;;;;;;;22.02;100.00;101407.88;4999713;28;20057;-86
2022/08/25 09:09:24;;;;;;;;;;;;;;;22.25;100.00;101416.63;4997482;28;20057;-85
2022/08/25 09:12:11;;;;;;;5.45;3.08;;;;;;;22.40;100.00;101413.22;5001364;28;19925;-86
2022/08/25 09:14:58;;;;;;;9.85;3.05;;;;;;;22.31;100.00;101411.69;4993002;28;20454;-84
2022/08/25 09:17:48;;;;;;;8.52;3.20;;;;;;;22.29;100.00;101417.56;5012411;28;20071;-86
2022/08/25 09:20:49;;;;;;;6.20;3.05;;;;;;;22.52;100.00;101414.41;5005985;28;20088;-87
2022/08/25 09:23:44;;;;;;;7.55;3.22;;;;;;;22.59;100.00;101409.09;5013672;28;20056;-85
2022/08/25 09:26:29;;;;;;;8.27;3.20;;;;;;;22.67;100.00;101410.16;4995441;28;20048;-86
2022/08/25 09:29:02;;;;;;;17.67;3.30;;;;;;;22.52;100.00;101400.53;4994515;28;20053;-85
2022/08/25 09:31:38;;;;;;;5.68;2.95;;;;;;;22.71;100.00;101411.88;5009818;28;20053;-88
2022/08/25 09:34:12;;;;;;;8.23;3.13;;;;;;;22.83;100.00;101407.50;5015547;28;20046;-85
2022/08/25 09:36:49;;;;;;;7.22;2.92;;;;;;;23.00;100.00;101407.28;4995638;28;20061;-84
2022/08/25 09:39:22;;;;;;;7.72;3.10;;;;;;;22.95;100.00;101398.38;5005312;28;20061;-85
2022/08/25 09:41:57;;;;;;;5.97;3.00;;;;;;;22.92;100.00;101397.94;5024484;28;20045;-86
2022/08/25 09:44:34;;;;;;;6.85;3.50;;;;;;;23.01;100.00;101389.47;5013829;28;20046;-87
2022/08/25 09:47:22;;;;;;;6.88;3.15;;;;;;;22.97;100.00;101391.31;5015328;28;20508;-86
2022/08/25 09:49:59;;;;;;;7.32;3.13;;;;;;;22.99;100.00;101385.41;5011056;28;20065;-85
2022/08/25 09:52:36;;;;;;;12.90;3.83;;;;;;;23.03;100.00;101373.25;4992073;28;20064;-85
2022/08/25 09:55:27;;;;;;;11.95;3.47;;;;;;;22.89;100.00;101379.19;5000210;28;20586;-89
2022/08/25 09:57:57;;;;;;;5.97;3.08;;;;;;;22.98;100.00;101372.69;5007928;28;20707;-86
2022/08/25 10:00:33;;;;;;;7.10;2.88;;;;;;;23.06;100.00;101367.03;4986562;28;20063;-86
2022/08/25 10:03:06;;;;;;;4.90;2.60;;;;;;;22.98;100.00;101376.31;4981485;28;21465;-87
2022/08/25 10:05:58;;;;;;;7.03;3.10;;;;;;;22.53;100.00;101369.69;5002970;28;20069;-87
2022/08/25 10:08:35;;;;;;;6.18;2.67;;;;;;;22.85;100.00;101366.34;5003828;28;20049;-87
2022/08/25 10:11:14;;;;;;;6.82;2.95;;;;;;;22.84;100.00;101360.00;4999865;28;20092;-86
2022/08/25 10:13:50;;;;;;;5.40;2.45;;;;;;;22.97;100.00;101358.03;5002649;28;20377;-87
2022/08/25 10:16:26;;;;;;;8.40;2.63;;;;;;;23.02;100.00;101334.75;4989410;28;20057;-87
2022/08/25 10:19:08;;;;;;;6.40;2.83;;;;;;;23.16;100.00;101354.69;5020243;28;20056;-87
2022/08/25 10:21:43;;;;;;;4.82;2.72;;;;;;;23.23;100.00;101352.09;5024739;28;20057;-85
2022/08/25 10:24:19;;;;;;;9.73;3.03;;;;;;;23.15;100.00;101352.25;5027853;28;20075;-86
2022/08/25 10:26:59;;;;;;;6.80;2.75;;;;;;;23.06;100.00;101335.69;5025634;28;20054;-86
2022/08/25 10:29:53;;;;;;;5.13;2.97;;;;;;;23.18;100.00;101335.69;4997213;28;20075;-87
2022/08/25 10:32:33;;;;;;;4.78;2.72;;;;;;;23.17;100.00;101324.94;4999931;28;20055;-88
2022/08/25 10:35:13;;;;;;;5.22;2.60;;;;;;;23.20;100.00;101322.28;5026267;28;20045;-87
2022/08/25 10:38:00;;;;;;;6.20;2.63;;;;;;;23.47;100.00;101330.19;5002531;28;20054;-87
2022/08/25 10:40:43;;;;;;;7.50;3.00;;;;;;;23.67;100.00;101325.56;5004101;28;20558;-87
2022/08/25 10:43:24;;;;;;;6.88;2.83;;;;;;;23.82;100.00;101307.34;4999318;28;20061;-87
2022/08/25 10:46:05;;;;;;;6.37;2.50;;;;;;;23.69;100.00;101314.94;5018838;28;20064;-87
2022/08/25 10:48:52;;;;;;;8.93;2.80;;;;;;;23.70;100.00;101311.00;5021577;28;20060;-88
2022/08/25 10:51:38;;;;;;;10.10;2.60;;;;;;;23.90;100.00;101301.63;5003843;28;20057;-87
2022/08/25 10:54:19;;;;;;;;;;;;;;;24.22;100.00;101303.63;5001657;28;20068;-88
2022/08/25 10:56:56;;;;;;;4.63;2.63;;;;;;;24.39;100.00;101310.84;4987179;28;20595;-86
2022/08/25 10:59:42;;;;;;;9.63;2.65;;;;;;;24.35;100.00;101296.03;4991658;28;20295;-86
2022/08/25 11:02:46;;;;;;;5.03;2.40;;;;;;;24.48;100.00;101297.53;4987863;28;20214;-84
2022/08/25 11:05:26;;;;;;;6.50;2.72;;;;;;;24.44;100.00;101302.19;5007286;28;20520;-87
2022/08/25 11:08:03;;;;;;;7.90;2.40;;;;;;;24.32;100.00;101294.78;4980065;28;20482;-87
2022/08/25 11:10:42;;;;;;;4.88;2.42;;;;;;;24.25;100.00;101306.53;4995670;28;20667;-87
2022/08/25 11:13:22;;;;;;;4.80;2.60;;;;;;;24.20;100.00;101297.66;5009647;28;20045;-87
2022/08/25 11:15:58;;;;;;;5.07;2.40;;;;;;;24.11;100.00;101286.69;5004798;28;20490;-86
2022/08/25 11:18:30;;;;;;;5.65;2.75;;;;;;;24.11;100.00;101286.69;5002345;28;20470;-87
2022/08/25 11:21:09;;;;;;;4.80;2.55;;;;;;;24.16;100.00;101283.63;5005310;28;20049;-83
2022/08/25 11:23:50;;;;;;;5.93;2.60;;;;;;;24.14;100.00;101285.16;4995069;28;20402;-85
2022/08/25 11:26:32;;;;;;;6.50;2.45;;;;;;;23.92;100.00;101270.72;5011504;28;20052;-86
2022/08/25 11:29:12;;;;;;;6.53;2.50;;;;;;;23.81;100.00;101277.91;4990337;28;20273;-86
2022/08/25 11:31:48;;;;;;;5.60;2.65;;;;;;;23.97;100.00;101276.00;4988873;28;20049;-86
2022/08/25 11:34:23;;;;;;;9.10;2.40;;;;;;;23.99;100.00;101278.41;4995265;28;20067;-86
2022/08/25 11:36:59;;;;;;;4.30;2.28;;;;;;;24.28;100.00;101272.44;5002637;28;20693;-84
2022/08/25 11:39:46;;;;;;;6.32;2.63;;;;;;;24.79;100.00;101265.31;4984969;28;20053;-84
2022/08/25 11:42:27;;;;;;;6.82;2.65;;;;;;;25.00;100.00;101264.97;4986447;28;21791;-85
2022/08/25 11:45:08;;;;;;;4.70;2.20;;;;;;;25.12;100.00;101269.56;4985017;28;20498;-86
2022/08/25 11:48:04;;;;;;;10.50;2.65;;;;;;;25.07;100.00;101262.31;5011176;28;20218;-86
2022/08/25 11:50:56;;;;;;;6.35;2.55;;;;;;;24.83;100.00;101255.06;5013605;28;20056;-85
2022/08/25 11:53:32;;;;;;;5.00;2.33;;;;;;;24.65;100.00;101257.44;5001293;28;20053;-86
2022/08/25 11:56:08;;;;;;;5.55;2.45;;;;;;;24.66;100.00;101261.00;5001870;28;20053;-84
2022/08/25 11:58:48;;;;;;;3.85;2.45;;;;;;;24.68;100.00;101253.09;5008514;28;20063;-86